Clean Ocean — WDE7605 — position and weather

sailwx.info

Track history (hours):
 
Tides and Currents Weather Stations Pressure Air Temp Water Temp Dewpoint Dewpoint Depression Visibility Wind Speed Wind Dir Waves Ship Positions

Clean Ocean

Owner: Meston Offshore, Ventura, CA. More information available from US FCC via Universal Licensing System and Coast Guard Vessel Documentation Center.

Last reported at 2017-Sep-21 17:31 UTC. Time now 2017-Sep-22 20:40 UTC.
Position N 33°44' W 118°16'.

Length 44 m; draft 2.5 m.

Type: Other ship. MMSI: 367395280.

Date/timePositionNaut miles runAvg speedWind from/ knotsBaromVisibWave heightAir tempDewpointWater temp
2017-Sep-21 17:31N 33°44' W 118°16'0 0.2
2017-Sep-21 17:13N 33°44' W 118°16'0 0.0
2017-Sep-21 16:49N 33°44' W 118°16'0 0.0
2017-Sep-20 20:46N 33°44' W 118°16'0 0.0
2017-Sep-20 20:16N 33°44' W 118°16'0 0.0
2017-Sep-20 18:52N 33°44' W 118°16'0 0.0
2017-Sep-20 17:04N 33°44' W 118°16'0 0.0
2017-Sep-20 08:52N 33°44' W 118°16'0 0.0
2017-Sep-20 06:34N 33°44' W 118°16'0 0.2
2017-Sep-20 06:16N 33°44' W 118°16'0 0.2
2017-Sep-20 05:58N 33°44' W 118°16'0 0.0
2017-Sep-19 10:10N 33°44' W 118°16'0 0.3
2017-Sep-19 09:51N 33°44' W 118°16'7 5.2
2017-Sep-19 08:33N 33°43' W 118°24'1 8.8
2017-Sep-19 08:27N 33°44' W 118°25'4 8.7
2017-Sep-19 08:00N 33°46' W 118°28'5 8.9
2017-Sep-19 07:27N 33°51' W 118°31'4 8.7
2017-Sep-19 07:00N 33°54' W 118°34'3 5.3
2017-Sep-19 06:29N 33°56' W 118°36'1 0.4
2017-Sep-19 04:11N 33°57' W 118°37'0 0.1
2017-Sep-19 04:00N 33°57' W 118°37'0 0.2
2017-Sep-19 03:30N 33°57' W 118°37'0 0.3
2017-Sep-19 02:54N 33°57' W 118°37'0 0.7
2017-Sep-19 02:18N 33°57' W 118°37'1 0.9
2017-Sep-19 01:11N 33°58' W 118°38'0 0.2
2017-Sep-18 23:41N 33°58' W 118°38'1 2.3
2017-Sep-18 23:17N 33°57' W 118°37'0 0.1
2017-Sep-18 22:23N 33°57' W 118°37'1 3.1
2017-Sep-18 22:00N 33°58' W 118°38'1 1.8
2017-Sep-18 21:30N 33°57' W 118°37'1 1.2
2017-Sep-18 20:58N 33°57' W 118°37'1 1.3
2017-Sep-18 20:30N 33°57' W 118°37'3 3.2
2017-Sep-18 19:40N 33°56' W 118°35'1 2.0
2017-Sep-18 19:19N 33°56' W 118°34'1 1.2
2017-Sep-18 18:41N 33°56' W 118°35'0 1.2
2017-Sep-18 18:22N 33°56' W 118°35'0 1.0
2017-Sep-18 18:00N 33°56' W 118°36'0 0.4
2017-Sep-18 17:24N 33°56' W 118°36'1 2.3
2017-Sep-18 17:00N 33°57' W 118°37'2 3.7
2017-Sep-18 16:30N 33°58' W 118°39'0 0.1
2017-Sep-18 16:00N 33°58' W 118°39'2 3.2
2017-Sep-18 15:30N 33°57' W 118°37'2 3.0
2017-Sep-18 14:59N 33°58' W 118°39'0 0.9
2017-Sep-18 14:30N 33°58' W 118°38'3 4.2
2017-Sep-18 13:53N 33°57' W 118°35'1 1.5
2017-Sep-18 13:28N 33°56' W 118°35'4 8.6
2017-Sep-18 13:00N 33°53' W 118°33'4 8.6
2017-Sep-18 12:30N 33°49' W 118°30'4 8.4
2017-Sep-18 12:00N 33°46' W 118°27'4 7.6
2017-Sep-18 11:30N 33°43' W 118°24'4 7.7
2017-Sep-18 11:00N 33°42' W 118°20'4 7.9
2017-Sep-18 10:30N 33°42' W 118°15'2 3.9
2017-Sep-18 09:59N 33°44' W 118°16'0 0.0
2017-Sep-18 09:25N 33°44' W 118°16'0 0.0
2017-Sep-18 08:46N 33°44' W 118°16'0 0.0
2017-Sep-16 07:32N 33°44' W 118°16'0 0.3
2017-Sep-16 07:20N 33°44' W 118°16'0 0.0
2017-Sep-16 02:08N 33°44' W 118°16'0 0.0
2017-Sep-16 01:44N 33°44' W 118°16'0 0.0
2017-Sep-15 22:20N 33°44' W 118°16'0 0.0
2017-Sep-15 21:56N 33°44' W 118°16'0 0.0
2017-Sep-15 08:56N 33°44' W 118°16'0 0.0
2017-Sep-15 08:29N 33°44' W 118°16'0 0.0
2017-Sep-15 07:59N 33°44' W 118°16'0 0.0
2017-Sep-15 07:29N 33°44' W 118°16'0 0.0
2017-Sep-15 05:59N 33°44' W 118°16'0 0.0
2017-Sep-15 05:23N 33°44' W 118°16'0 0.0
2017-Sep-15 00:11N 33°44' W 118°16'0 0.0
2017-Sep-14 23:47N 33°44' W 118°16'0 0.0
2017-Sep-14 22:53N 33°44' W 118°16'0 0.0
2017-Sep-14 17:59N 33°44' W 118°16'0 0.0
2017-Sep-14 13:44N 33°44' W 118°16'0 0.0
2017-Sep-14 13:26N 33°44' W 118°16'0 0.0
2017-Sep-14 11:50N 33°44' W 118°16'0 0.0
2017-Sep-14 05:35N 33°44' W 118°16'0 0.1
2017-Sep-14 05:29N 33°44' W 118°16'0 0.0
2017-Sep-14 01:53N 33°44' W 118°16'0 0.0
2017-Sep-14 01:29N 33°44' W 118°16'0 0.0
2017-Sep-14 00:59N 33°44' W 118°16'0 0.0
2017-Sep-14 00:17N 33°44' W 118°16'0 0.0
2017-Sep-13 23:53N 33°44' W 118°16'0 0.1
2017-Sep-13 23:30N 33°44' W 118°16'0 0.5
2017-Sep-13 22:57N 33°44' W 118°16'0 0.1
2017-Sep-13 22:28N 33°44' W 118°16'0 0.4
2017-Sep-13 21:57N 33°44' W 118°16'0 0.0
2017-Sep-13 21:15N 33°44' W 118°16'0 0.0
2017-Sep-13 21:00N 33°44' W 118°16'0 0.0
2017-Sep-13 20:27N 33°44' W 118°16'0 0.0
2017-Sep-13 19:57N 33°44' W 118°16'0 0.0
2017-Sep-13 19:21N 33°44' W 118°16'0 0.0
2017-Sep-13 18:51N 33°44' W 118°16'0 0.0
2017-Sep-13 17:39N 33°44' W 118°16'0 0.0
2017-Sep-13 17:09N 33°44' W 118°16'0 0.0
2017-Sep-13 15:42N 33°44' W 118°16'0 0.1
2017-Sep-13 13:00N 33°44' W 118°16'0 0.0
2017-Sep-13 12:29N 33°44' W 118°16'0 0.0
2017-Sep-13 11:47N 33°44' W 118°16'0 0.0
2017-Sep-13 11:29N 33°44' W 118°16'0 0.0
2017-Sep-13 10:59N 33°44' W 118°16'0 0.0
2017-Sep-13 09:47N 33°44' W 118°16'0 0.0
2017-Sep-13 08:32N 33°44' W 118°16'0 0.0
2017-Sep-13 08:17N 33°44' W 118°16'0 0.0
2017-Sep-13 07:47N 33°44' W 118°16'0 0.0
2017-Sep-13 07:26N 33°44' W 118°16'0 0.0
2017-Sep-13 06:59N 33°44' W 118°16'0 0.0
2017-Sep-13 06:29N 33°44' W 118°16'0 0.0
2017-Sep-13 05:26N 33°44' W 118°16'0 0.0
2017-Sep-13 04:59N 33°44' W 118°16'0 0.0
2017-Sep-13 04:20N 33°44' W 118°16'0 0.0
2017-Sep-13 03:56N 33°44' W 118°16'0 0.0
2017-Sep-13 03:29N 33°44' W 118°16'0 0.0
2017-Sep-13 02:59N 33°44' W 118°16'0 0.0
2017-Sep-13 02:29N 33°44' W 118°16'0 0.0
2017-Sep-13 01:56N 33°44' W 118°16'0 0.0
2017-Sep-13 01:29N 33°44' W 118°16'0 0.0
2017-Sep-13 00:59N 33°44' W 118°16'0 0.0
2017-Sep-13 00:26N 33°44' W 118°16'0 0.0
2017-Sep-12 23:59N 33°44' W 118°16'0 0.0
2017-Sep-12 23:29N 33°44' W 118°16'0 0.0
2017-Sep-12 22:59N 33°44' W 118°16'0 0.0
2017-Sep-12 22:29N 33°44' W 118°16'0 0.0
2017-Sep-12 21:59N 33°44' W 118°16'0 0.0
2017-Sep-12 21:29N 33°44' W 118°16'0 0.0
2017-Sep-12 20:59N 33°44' W 118°16'0 0.0
2017-Sep-12 20:23N 33°44' W 118°16'0 0.0
2017-Sep-12 19:59N 33°44' W 118°16'0 0.0
2017-Sep-12 19:29N 33°44' W 118°16'0 0.0
2017-Sep-12 18:59N 33°44' W 118°16'0 0.0
2017-Sep-12 18:23N 33°44' W 118°16'0 0.0
2017-Sep-12 17:56N 33°44' W 118°16'0 0.0
2017-Sep-12 17:14N 33°44' W 118°16'0 0.0
2017-Sep-12 16:50N 33°44' W 118°16'0 0.0
2017-Sep-12 16:20N 33°44' W 118°16'0 0.0
2017-Sep-12 15:59N 33°44' W 118°16'0 0.0
2017-Sep-12 15:29N 33°44' W 118°16'0 0.0
2017-Sep-12 14:56N 33°44' W 118°16'0 0.0
2017-Sep-12 14:26N 33°44' W 118°16'0 0.0
2017-Sep-12 13:59N 33°44' W 118°16'0 0.0
2017-Sep-12 13:29N 33°44' W 118°16'0 0.0
2017-Sep-12 12:56N 33°44' W 118°16'0 0.0
2017-Sep-12 12:26N 33°44' W 118°16'0 0.0
2017-Sep-12 11:59N 33°44' W 118°16'0 0.0
2017-Sep-12 11:29N 33°44' W 118°16'0 0.0
2017-Sep-12 10:59N 33°44' W 118°16'0 0.0
2017-Sep-12 10:29N 33°44' W 118°16'0 0.0
2017-Sep-12 09:56N 33°44' W 118°16'0 0.0
2017-Sep-12 09:29N 33°44' W 118°16'0 0.0
2017-Sep-12 08:53N 33°44' W 118°16'0 0.0
2017-Sep-12 08:29N 33°44' W 118°16'0 0.0
2017-Sep-12 07:53N 33°44' W 118°16'0 0.0
2017-Sep-12 07:29N 33°44' W 118°16'0 0.0
2017-Sep-12 06:59N 33°44' W 118°16'0 0.0
2017-Sep-12 06:29N 33°44' W 118°16'0 0.0
2017-Sep-12 05:59N 33°44' W 118°16'0 0.0
2017-Sep-12 05:29N 33°44' W 118°16'0 0.0
2017-Sep-12 04:59N 33°44' W 118°16'0 0.0
2017-Sep-12 04:29N 33°44' W 118°16'0 0.0
2017-Sep-12 03:59N 33°44' W 118°16'0 0.0
2017-Sep-12 03:29N 33°44' W 118°16'0 0.0
2017-Sep-12 02:59N 33°44' W 118°16'0 0.0
2017-Sep-12 02:26N 33°44' W 118°16'0 0.0
2017-Sep-12 01:59N 33°44' W 118°16'0 0.0
2017-Sep-12 01:29N 33°44' W 118°16'0 0.0
2017-Sep-12 00:59N 33°44' W 118°16'0 0.0
2017-Sep-12 00:20N 33°44' W 118°16'0 0.0
2017-Sep-11 23:59N 33°44' W 118°16'0 0.0
2017-Sep-11 23:29N 33°44' W 118°16'0 0.0
2017-Sep-11 22:59N 33°44' W 118°16'0 0.0
2017-Sep-11 22:29N 33°44' W 118°16'0 0.0
2017-Sep-11 21:56N 33°44' W 118°16'0 0.0
2017-Sep-11 21:29N 33°44' W 118°16'0 0.0
2017-Sep-11 20:59N 33°44' W 118°16'0 0.0
2017-Sep-11 20:29N 33°44' W 118°16'0 0.0
2017-Sep-11 19:59N 33°44' W 118°16'0 0.0
2017-Sep-11 19:29N 33°44' W 118°16'0 0.0
2017-Sep-11 18:56N 33°44' W 118°16'0 0.0
2017-Sep-11 18:29N 33°44' W 118°16'0 0.0
2017-Sep-11 17:59N 33°44' W 118°16'  
Track history (hours):
 
Tides and Currents Weather Stations Pressure Air Temp Water Temp Dewpoint Dewpoint Depression Visibility Wind Speed Wind Dir Waves Ship Positions

Clean Ocean

Owner: Meston Offshore, Ventura, CA. More information available from US FCC via Universal Licensing System and Coast Guard Vessel Documentation Center.

Last reported at 2017-Sep-21 17:31 UTC. Time now 2017-Sep-22 20:40 UTC.
Position N 33°44' W 118°16'.

Length 44 m; draft 2.5 m.

Type: Other ship. MMSI: 367395280.

Date/timePositionNaut miles runAvg speedWind from/ knotsBaromVisibWave heightAir tempDewpointWater temp
2017-Sep-21 17:31N 33°44' W 118°16'0 0.2
2017-Sep-21 17:13N 33°44' W 118°16'0 0.0
2017-Sep-21 16:49N 33°44' W 118°16'0 0.0
2017-Sep-20 20:46N 33°44' W 118°16'0 0.0
2017-Sep-20 20:16N 33°44' W 118°16'0 0.0
2017-Sep-20 18:52N 33°44' W 118°16'0 0.0
2017-Sep-20 17:04N 33°44' W 118°16'0 0.0
2017-Sep-20 08:52N 33°44' W 118°16'0 0.0
2017-Sep-20 06:34N 33°44' W 118°16'0 0.2
2017-Sep-20 06:16N 33°44' W 118°16'0 0.2
2017-Sep-20 05:58N 33°44' W 118°16'0 0.0
2017-Sep-19 10:10N 33°44' W 118°16'0 0.3
2017-Sep-19 09:51N 33°44' W 118°16'7 5.2
2017-Sep-19 08:33N 33°43' W 118°24'1 8.8
2017-Sep-19 08:27N 33°44' W 118°25'4 8.7
2017-Sep-19 08:00N 33°46' W 118°28'5 8.9
2017-Sep-19 07:27N 33°51' W 118°31'4 8.7
2017-Sep-19 07:00N 33°54' W 118°34'3 5.3
2017-Sep-19 06:29N 33°56' W 118°36'1 0.4
2017-Sep-19 04:11N 33°57' W 118°37'0 0.1
2017-Sep-19 04:00N 33°57' W 118°37'0 0.2
2017-Sep-19 03:30N 33°57' W 118°37'0 0.3
2017-Sep-19 02:54N 33°57' W 118°37'0 0.7
2017-Sep-19 02:18N 33°57' W 118°37'1 0.9
2017-Sep-19 01:11N 33°58' W 118°38'0 0.2
2017-Sep-18 23:41N 33°58' W 118°38'1 2.3
2017-Sep-18 23:17N 33°57' W 118°37'0 0.1
2017-Sep-18 22:23N 33°57' W 118°37'1 3.1
2017-Sep-18 22:00N 33°58' W 118°38'1 1.8
2017-Sep-18 21:30N 33°57' W 118°37'1 1.2
2017-Sep-18 20:58N 33°57' W 118°37'1 1.3
2017-Sep-18 20:30N 33°57' W 118°37'3 3.2
2017-Sep-18 19:40N 33°56' W 118°35'1 2.0
2017-Sep-18 19:19N 33°56' W 118°34'1 1.2
2017-Sep-18 18:41N 33°56' W 118°35'0 1.2
2017-Sep-18 18:22N 33°56' W 118°35'0 1.0
2017-Sep-18 18:00N 33°56' W 118°36'0 0.4
2017-Sep-18 17:24N 33°56' W 118°36'1 2.3
2017-Sep-18 17:00N 33°57' W 118°37'2 3.7
2017-Sep-18 16:30N 33°58' W 118°39'0 0.1
2017-Sep-18 16:00N 33°58' W 118°39'2 3.2
2017-Sep-18 15:30N 33°57' W 118°37'2 3.0
2017-Sep-18 14:59N 33°58' W 118°39'0 0.9
2017-Sep-18 14:30N 33°58' W 118°38'3 4.2
2017-Sep-18 13:53N 33°57' W 118°35'1 1.5
2017-Sep-18 13:28N 33°56' W 118°35'4 8.6
2017-Sep-18 13:00N 33°53' W 118°33'4 8.6
2017-Sep-18 12:30N 33°49' W 118°30'4 8.4
2017-Sep-18 12:00N 33°46' W 118°27'4 7.6
2017-Sep-18 11:30N 33°43' W 118°24'4 7.7
2017-Sep-18 11:00N 33°42' W 118°20'4 7.9
2017-Sep-18 10:30N 33°42' W 118°15'2 3.9
2017-Sep-18 09:59N 33°44' W 118°16'0 0.0
2017-Sep-18 09:25N 33°44' W 118°16'0 0.0
2017-Sep-18 08:46N 33°44' W 118°16'0 0.0
2017-Sep-16 07:32N 33°44' W 118°16'0 0.3
2017-Sep-16 07:20N 33°44' W 118°16'0 0.0
2017-Sep-16 02:08N 33°44' W 118°16'0 0.0
2017-Sep-16 01:44N 33°44' W 118°16'0 0.0
2017-Sep-15 22:20N 33°44' W 118°16'0 0.0
2017-Sep-15 21:56N 33°44' W 118°16'0 0.0
2017-Sep-15 08:56N 33°44' W 118°16'0 0.0
2017-Sep-15 08:29N 33°44' W 118°16'0 0.0
2017-Sep-15 07:59N 33°44' W 118°16'0 0.0
2017-Sep-15 07:29N 33°44' W 118°16'0 0.0
2017-Sep-15 05:59N 33°44' W 118°16'0 0.0
2017-Sep-15 05:23N 33°44' W 118°16'0 0.0
2017-Sep-15 00:11N 33°44' W 118°16'0 0.0
2017-Sep-14 23:47N 33°44' W 118°16'0 0.0
2017-Sep-14 22:53N 33°44' W 118°16'0 0.0
2017-Sep-14 17:59N 33°44' W 118°16'0 0.0
2017-Sep-14 13:44N 33°44' W 118°16'0 0.0
2017-Sep-14 13:26N 33°44' W 118°16'0 0.0
2017-Sep-14 11:50N 33°44' W 118°16'0 0.0
2017-Sep-14 05:35N 33°44' W 118°16'0 0.1
2017-Sep-14 05:29N 33°44' W 118°16'0 0.0
2017-Sep-14 01:53N 33°44' W 118°16'0 0.0
2017-Sep-14 01:29N 33°44' W 118°16'0 0.0
2017-Sep-14 00:59N 33°44' W 118°16'0 0.0
2017-Sep-14 00:17N 33°44' W 118°16'0 0.0
2017-Sep-13 23:53N 33°44' W 118°16'0 0.1
2017-Sep-13 23:30N 33°44' W 118°16'0 0.5
2017-Sep-13 22:57N 33°44' W 118°16'0 0.1
2017-Sep-13 22:28N 33°44' W 118°16'0 0.4
2017-Sep-13 21:57N 33°44' W 118°16'0 0.0
2017-Sep-13 21:15N 33°44' W 118°16'0 0.0
2017-Sep-13 21:00N 33°44' W 118°16'0 0.0
2017-Sep-13 20:27N 33°44' W 118°16'0 0.0
2017-Sep-13 19:57N 33°44' W 118°16'0 0.0
2017-Sep-13 19:21N 33°44' W 118°16'0 0.0
2017-Sep-13 18:51N 33°44' W 118°16'0 0.0
2017-Sep-13 17:39N 33°44' W 118°16'0 0.0
2017-Sep-13 17:09N 33°44' W 118°16'0 0.0
2017-Sep-13 15:42N 33°44' W 118°16'0 0.1
2017-Sep-13 13:00N 33°44' W 118°16'0 0.0
2017-Sep-13 12:29N 33°44' W 118°16'0 0.0
2017-Sep-13 11:47N 33°44' W 118°16'0 0.0
2017-Sep-13 11:29N 33°44' W 118°16'0 0.0
2017-Sep-13 10:59N 33°44' W 118°16'0 0.0
2017-Sep-13 09:47N 33°44' W 118°16'0 0.0
2017-Sep-13 08:32N 33°44' W 118°16'0 0.0
2017-Sep-13 08:17N 33°44' W 118°16'0 0.0
2017-Sep-13 07:47N 33°44' W 118°16'0 0.0
2017-Sep-13 07:26N 33°44' W 118°16'0 0.0
2017-Sep-13 06:59N 33°44' W 118°16'0 0.0
2017-Sep-13 06:29N 33°44' W 118°16'0 0.0
2017-Sep-13 05:26N 33°44' W 118°16'0 0.0
2017-Sep-13 04:59N 33°44' W 118°16'0 0.0
2017-Sep-13 04:20N 33°44' W 118°16'0 0.0
2017-Sep-13 03:56N 33°44' W 118°16'0 0.0
2017-Sep-13 03:29N 33°44' W 118°16'0 0.0
2017-Sep-13 02:59N 33°44' W 118°16'0 0.0
2017-Sep-13 02:29N 33°44' W 118°16'0 0.0
2017-Sep-13 01:56N 33°44' W 118°16'0 0.0
2017-Sep-13 01:29N 33°44' W 118°16'0 0.0
2017-Sep-13 00:59N 33°44' W 118°16'0 0.0
2017-Sep-13 00:26N 33°44' W 118°16'0 0.0
2017-Sep-12 23:59N 33°44' W 118°16'0 0.0
2017-Sep-12 23:29N 33°44' W 118°16'0 0.0
2017-Sep-12 22:59N 33°44' W 118°16'0 0.0
2017-Sep-12 22:29N 33°44' W 118°16'0 0.0
2017-Sep-12 21:59N 33°44' W 118°16'0 0.0
2017-Sep-12 21:29N 33°44' W 118°16'0 0.0
2017-Sep-12 20:59N 33°44' W 118°16'0 0.0
2017-Sep-12 20:23N 33°44' W 118°16'0 0.0
2017-Sep-12 19:59N 33°44' W 118°16'0 0.0
2017-Sep-12 19:29N 33°44' W 118°16'0 0.0
2017-Sep-12 18:59N 33°44' W 118°16'0 0.0
2017-Sep-12 18:23N 33°44' W 118°16'0 0.0
2017-Sep-12 17:56N 33°44' W 118°16'0 0.0
2017-Sep-12 17:14N 33°44' W 118°16'0 0.0
2017-Sep-12 16:50N 33°44' W 118°16'0 0.0
2017-Sep-12 16:20N 33°44' W 118°16'0 0.0
2017-Sep-12 15:59N 33°44' W 118°16'0 0.0
2017-Sep-12 15:29N 33°44' W 118°16'0 0.0
2017-Sep-12 14:56N 33°44' W 118°16'0 0.0
2017-Sep-12 14:26N 33°44' W 118°16'0 0.0
2017-Sep-12 13:59N 33°44' W 118°16'0 0.0
2017-Sep-12 13:29N 33°44' W 118°16'0 0.0
2017-Sep-12 12:56N 33°44' W 118°16'0 0.0
2017-Sep-12 12:26N 33°44' W 118°16'0 0.0
2017-Sep-12 11:59N 33°44' W 118°16'0 0.0
2017-Sep-12 11:29N 33°44' W 118°16'0 0.0
2017-Sep-12 10:59N 33°44' W 118°16'0 0.0
2017-Sep-12 10:29N 33°44' W 118°16'0 0.0
2017-Sep-12 09:56N 33°44' W 118°16'0 0.0
2017-Sep-12 09:29N 33°44' W 118°16'0 0.0
2017-Sep-12 08:53N 33°44' W 118°16'0 0.0
2017-Sep-12 08:29N 33°44' W 118°16'0 0.0
2017-Sep-12 07:53N 33°44' W 118°16'0 0.0
2017-Sep-12 07:29N 33°44' W 118°16'0 0.0
2017-Sep-12 06:59N 33°44' W 118°16'0 0.0
2017-Sep-12 06:29N 33°44' W 118°16'0 0.0
2017-Sep-12 05:59N 33°44' W 118°16'0 0.0
2017-Sep-12 05:29N 33°44' W 118°16'0 0.0
2017-Sep-12 04:59N 33°44' W 118°16'0 0.0
2017-Sep-12 04:29N 33°44' W 118°16'0 0.0
2017-Sep-12 03:59N 33°44' W 118°16'0 0.0
2017-Sep-12 03:29N 33°44' W 118°16'0 0.0
2017-Sep-12 02:59N 33°44' W 118°16'0 0.0
2017-Sep-12 02:26N 33°44' W 118°16'0 0.0
2017-Sep-12 01:59N 33°44' W 118°16'0 0.0
2017-Sep-12 01:29N 33°44' W 118°16'0 0.0
2017-Sep-12 00:59N 33°44' W 118°16'0 0.0
2017-Sep-12 00:20N 33°44' W 118°16'0 0.0
2017-Sep-11 23:59N 33°44' W 118°16'0 0.0
2017-Sep-11 23:29N 33°44' W 118°16'0 0.0
2017-Sep-11 22:59N 33°44' W 118°16'0 0.0
2017-Sep-11 22:29N 33°44' W 118°16'0 0.0
2017-Sep-11 21:56N 33°44' W 118°16'0 0.0
2017-Sep-11 21:29N 33°44' W 118°16'0 0.0
2017-Sep-11 20:59N 33°44' W 118°16'0 0.0
2017-Sep-11 20:29N 33°44' W 118°16'0 0.0
2017-Sep-11 19:59N 33°44' W 118°16'0 0.0
2017-Sep-11 19:29N 33°44' W 118°16'0 0.0
2017-Sep-11 18:56N 33°44' W 118°16'0 0.0
2017-Sep-11 18:29N 33°44' W 118°16'0 0.0
2017-Sep-11 17:59N 33°44' W 118°16'  

Dump ship's entire track history